Time;durP1;ratioP1;P1;durP2;ratioP2;P2;SDS_P1;SDS_P2;PMS_P1;PMS_P2;Temp;Humidity;BMP_temperature;BMP_pressure;BME280_temperature;BME280_humidity;BME280_pressure;Samples;Min_cycle;Max_cycle;Signal;HPM_P1;HPM_P2
2022/02/18 00:00:12;;;;;;;6.82;0.85;;;;;;;5.82;69.71;99151.53;4927856;29;20127;-50
2022/02/18 00:02:39;;;;;;;10.48;0.68;;;;;;;5.87;70.09;99159.22;4924973;29;20055;-55
2022/02/18 00:05:06;;;;;;;7.07;0.80;;;;;;;5.88;70.63;99159.22;4927335;29;20059;-54
2022/02/18 00:07:33;;;;;;;7.78;2.22;;;;;;;5.86;69.66;99160.94;4926679;29;20106;-57
2022/02/18 00:09:59;;;;;;;5.63;2.05;;;;;;;5.89;70.49;99153.25;4930451;29;20052;-55
2022/02/18 00:12:30;;;;;;;;;;;;;;;5.79;71.68;99121.53;4928918;29;20471;-55
2022/02/18 00:14:56;;;;;;;7.82;1.83;;;;;;;5.81;71.19;99077.81;4925502;29;19934;-54
2022/02/18 00:17:23;;;;;;;3.97;2.03;;;;;;;5.77;71.88;99058.13;4931908;29;20675;-55
2022/02/18 00:19:49;;;;;;;3.72;1.63;;;;;;;5.72;73.19;99073.56;4927444;29;20562;-54
2022/02/18 00:22:16;;;;;;;8.82;2.28;;;;;;;5.69;73.26;99072.69;4927579;28;20055;-53
2022/02/18 00:24:42;;;;;;;5.07;0.80;;;;;;;5.69;73.76;99068.41;4911038;29;20124;-56
2022/02/18 00:27:10;;;;;;;7.15;1.67;;;;;;;5.65;74.27;99061.56;4908073;29;20048;-54
2022/02/18 00:29:37;;;;;;;8.38;1.45;;;;;;;5.62;74.50;99031.59;4910115;29;20060;-55
2022/02/18 00:32:07;;;;;;;5.45;1.00;;;;;;;5.62;74.68;99021.31;4907841;29;20511;-56
2022/02/18 00:34:36;;;;;;;12.25;0.90;;;;;;;5.63;74.59;99011.88;4905526;29;20056;-52
2022/02/18 00:37:03;;;;;;;14.95;1.20;;;;;;;5.61;75.79;99004.16;4907719;29;20051;-55
2022/02/18 00:39:30;;;;;;;9.02;2.05;;;;;;;5.61;75.47;99004.16;4906938;29;20084;-55
2022/02/18 00:41:57;;;;;;;7.07;2.35;;;;;;;5.63;75.26;98993.88;4902216;29;20500;-57
2022/02/18 00:44:24;;;;;;;7.70;1.90;;;;;;;5.65;75.81;98964.78;4905309;29;20091;-57
2022/02/18 00:46:52;;;;;;;6.50;0.95;;;;;;;5.59;76.89;98939.09;4902431;29;20123;-57
2022/02/18 00:49:19;;;;;;;3.15;0.90;;;;;;;5.58;76.77;98937.41;4911126;29;20055;-53
2022/02/18 00:51:46;;;;;;;8.73;2.42;;;;;;;5.58;76.74;98931.38;4901540;29;20516;-52
2022/02/18 00:54:14;;;;;;;5.95;1.80;;;;;;;5.57;75.92;98920.25;4908826;29;20048;-57
2022/02/18 00:56:41;;;;;;;8.73;2.47;;;;;;;5.55;77.25;98910.84;4906198;29;20052;-55
2022/02/18 00:59:09;;;;;;;6.63;0.98;;;;;;;5.57;76.23;98889.41;4913284;29;20066;-57
2022/02/18 01:01:36;;;;;;;6.78;2.97;;;;;;;5.57;77.39;98868.88;4908522;29;20499;-56
2022/02/18 01:04:04;;;;;;;5.03;1.80;;;;;;;5.58;76.98;98864.59;4910969;29;20130;-56
2022/02/18 01:06:38;;;;;;;7.63;2.08;;;;;;;5.55;76.89;98859.47;4909347;29;20052;-55
2022/02/18 01:09:04;;;;;;;8.07;0.80;;;;;;;5.57;77.07;98837.22;4908464;29;20100;-57
2022/02/18 01:11:31;;;;;;;8.35;0.60;;;;;;;5.56;77.20;98820.06;4909744;29;20084;-53
2022/02/18 01:13:58;;;;;;;7.95;2.30;;;;;;;5.55;77.14;98798.69;4907917;29;20123;-55
2022/02/18 01:16:25;;;;;;;10.23;2.10;;;;;;;5.56;76.33;98800.38;4907784;29;20047;-57
2022/02/18 01:18:53;;;;;;;8.00;1.92;;;;;;;5.61;75.94;98783.25;4906380;29;20653;-53
2022/02/18 01:21:20;;;;;;;7.95;1.02;;;;;;;5.58;77.08;98773.00;4907235;29;20497;-53
2022/02/18 01:23:47;;;;;;;4.43;0.70;;;;;;;5.59;76.20;98754.16;4907689;29;20714;-55
2022/02/18 01:26:13;;;;;;;6.18;2.67;;;;;;;5.56;76.33;98733.59;4908634;29;20080;-52
2022/02/18 01:28:41;;;;;;;6.13;0.80;;;;;;;5.58;76.29;98726.75;4910999;29;20115;-55
2022/02/18 01:31:08;;;;;;;6.72;2.35;;;;;;;5.58;77.05;98721.63;4908318;29;20182;-51
2022/02/18 01:33:34;;;;;;;4.32;0.50;;;;;;;5.55;76.44;98716.50;4911258;29;20048;-56
2022/02/18 01:36:01;;;;;;;5.85;0.90;;;;;;;5.59;75.99;98701.91;4909648;29;20111;-54
2022/02/18 01:38:28;;;;;;;11.88;2.00;;;;;;;5.61;76.74;98702.78;4913902;29;20456;-57
2022/02/18 01:40:56;;;;;;;7.93;2.22;;;;;;;5.60;76.58;98694.19;4910171;29;20131;-58
2022/02/18 01:43:23;;;;;;;8.65;2.05;;;;;;;5.60;76.79;98673.66;4908371;29;20089;-56
2022/02/18 01:45:49;;;;;;;11.10;2.08;;;;;;;5.58;77.64;98665.13;4905216;29;20071;-54
2022/02/18 01:48:16;;;;;;;9.48;0.93;;;;;;;5.55;77.40;98653.97;4911256;29;20048;-57
2022/02/18 01:50:42;;;;;;;3.63;2.10;;;;;;;5.59;76.76;98641.13;4909847;29;20056;-53
2022/02/18 01:53:12;;;;;;;3.10;0.75;;;;;;;5.57;76.72;98637.69;4911840;29;20099;-57
2022/02/18 01:55:38;;;;;;;5.75;1.02;;;;;;;5.57;77.42;98618.88;4910793;29;20118;-53
2022/02/18 01:58:06;;;;;;;10.10;2.28;;;;;;;5.54;77.05;98601.75;4905590;29;20060;-55
2022/02/18 02:00:33;;;;;;;10.60;2.45;;;;;;;5.53;77.34;98597.50;4909884;29;20048;-57
2022/02/18 02:03:02;;;;;;;7.50;0.60;;;;;;;5.52;78.24;98578.69;4910736;29;20048;-53
2022/02/18 02:05:29;;;;;;;6.35;0.73;;;;;;;5.52;78.59;98567.53;4910198;29;20048;-55
2022/02/18 02:07:57;;;;;;;13.02;1.13;;;;;;;5.49;77.76;98553.00;4907174;29;20120;-57
2022/02/18 02:10:24;;;;;;;6.68;0.90;;;;;;;5.49;78.82;98531.59;4905413;29;20074;-51
2022/02/18 02:12:52;;;;;;;6.45;0.82;;;;;;;5.49;78.77;98516.19;4911279;29;20044;-53
2022/02/18 02:15:21;;;;;;;10.05;1.90;;;;;;;5.48;78.37;98497.38;4906563;29;20103;-54
2022/02/18 02:17:48;;;;;;;12.27;3.08;;;;;;;5.47;78.74;98481.97;4909916;29;20123;-56
2022/02/18 02:20:17;;;;;;;10.02;3.33;;;;;;;5.46;79.40;98454.56;4907481;29;20741;-57
2022/02/18 02:22:44;;;;;;;12.02;2.90;;;;;;;5.45;78.98;98437.47;4909971;29;20051;-57
2022/02/18 02:25:11;;;;;;;8.65;0.68;;;;;;;5.45;79.21;98417.78;4908705;29;20052;-55
2022/02/18 02:27:39;;;;;;;7.85;0.65;;;;;;;5.42;80.16;98412.66;4905103;29;20063;-54
2022/02/18 02:30:08;;;;;;;9.00;1.95;;;;;;;5.44;80.42;98402.38;4908319;29;20099;-57
2022/02/18 02:32:35;;;;;;;11.30;0.95;;;;;;;5.44;81.15;98392.13;4908112;29;20100;-54
2022/02/18 02:35:02;;;;;;;9.68;2.70;;;;;;;5.43;80.34;98375.03;4910555;29;20056;-54
2022/02/18 02:37:29;;;;;;;5.60;1.20;;;;;;;5.46;81.24;98357.00;4909798;29;20119;-57
2022/02/18 02:39:56;;;;;;;7.10;1.10;;;;;;;5.43;81.79;98341.63;4905561;29;20064;-54
2022/02/18 02:42:22;;;;;;;14.88;2.00;;;;;;;5.45;81.61;98332.19;4910408;29;20052;-51
2022/02/18 02:44:49;;;;;;;6.90;2.20;;;;;;;5.45;81.08;98309.06;4907891;29;20139;-50
2022/02/18 02:47:16;;;;;;;10.23;2.65;;;;;;;5.43;81.15;98296.25;4909124;29;20049;-55
2022/02/18 02:49:45;;;;;;;8.60;0.82;;;;;;;5.45;82.07;98286.81;4907507;29;20504;-52
2022/02/18 02:52:12;;;;;;;4.45;0.80;;;;;;;5.48;82.50;98265.41;4911200;29;20048;-57
2022/02/18 02:54:39;;;;;;;6.72;1.70;;;;;;;5.46;81.57;98254.28;4905745;29;20052;-54
2022/02/18 02:57:06;;;;;;;6.95;1.10;;;;;;;5.49;80.75;98249.13;4907829;29;20044;-57
2022/02/18 02:59:32;;;;;;;7.57;2.10;;;;;;;5.50;82.59;98250.81;4906936;29;20492;-58
2022/02/18 03:01:59;;;;;;;3.13;0.88;;;;;;;5.50;81.40;98232.81;4908899;29;20452;-56
2022/02/18 03:04:26;;;;;;;11.30;1.17;;;;;;;5.49;82.84;98214.03;4907631;29;20115;-57
2022/02/18 03:06:52;;;;;;;8.77;1.25;;;;;;;5.55;82.77;98202.81;4907149;29;20084;-54
2022/02/18 03:09:39;;;;;;;8.32;2.88;;;;;;;5.59;82.08;98162.53;4906137;29;20048;-60
2022/02/18 03:12:06;;;;;;;4.72;1.90;;;;;;;5.63;82.62;98152.22;4907883;29;20167;-55
2022/02/18 03:14:32;;;;;;;13.50;3.45;;;;;;;5.61;82.76;98156.50;4908838;29;20057;-59
2022/02/18 03:16:59;;;;;;;8.10;2.92;;;;;;;5.65;82.03;98142.75;4905806;29;20103;-54
2022/02/18 03:19:26;;;;;;;7.97;2.72;;;;;;;5.71;82.67;98141.00;4908706;29;20043;-57
2022/02/18 03:21:54;;;;;;;14.05;1.35;;;;;;;5.75;82.96;98127.22;4909736;29;20072;-54
2022/02/18 03:24:22;;;;;;;10.88;3.10;;;;;;;5.81;83.16;98101.44;4905101;29;20057;-57
2022/02/18 03:26:49;;;;;;;5.60;1.23;;;;;;;5.85;83.95;98095.41;4907479;29;20080;-53
2022/02/18 03:29:18;;;;;;;6.57;1.05;;;;;;;5.90;82.82;98075.63;4910819;29;20107;-56
2022/02/18 03:31:44;;;;;;;8.55;2.25;;;;;;;5.91;82.65;98082.44;4906749;29;20088;-52
2022/02/18 03:34:11;;;;;;;9.52;2.35;;;;;;;5.99;82.51;98066.91;4907198;29;20063;-54
2022/02/18 03:36:38;;;;;;;10.27;2.35;;;;;;;6.04;82.72;98061.72;4902002;29;20134;-58
2022/02/18 03:39:04;;;;;;;6.80;0.80;;;;;;;6.08;83.56;98041.97;4911317;29;20048;-51
2022/02/18 03:41:32;;;;;;;9.32;2.17;;;;;;;6.14;82.79;98001.56;4908850;29;20116;-55
2022/02/18 03:43:59;;;;;;;4.43;1.45;;;;;;;6.23;83.86;98004.84;4907709;29;20127;-57
2022/02/18 03:46:26;;;;;;;3.95;1.67;;;;;;;6.24;82.97;97993.69;4903117;29;20139;-60
2022/02/18 03:48:53;;;;;;;8.43;1.75;;;;;;;6.25;83.21;97987.69;4907603;29;20044;-53
2022/02/18 03:51:20;;;;;;;5.07;1.85;;;;;;;6.32;84.33;97973.00;4911291;29;20654;-54
2022/02/18 03:53:49;;;;;;;5.38;0.60;;;;;;;6.34;83.20;97951.50;4910061;29;20599;-55
2022/02/18 03:56:16;;;;;;;1.95;0.70;;;;;;;6.33;84.56;97949.81;4909787;29;20520;-59
2022/02/18 03:58:43;;;;;;;5.60;0.57;;;;;;;6.41;82.95;97926.53;4907223;29;20056;-57
2022/02/18 04:01:09;;;;;;;1.60;0.40;;;;;;;6.47;84.50;97910.97;4908611;29;20103;-57
2022/02/18 04:03:36;;;;;;;2.42;0.60;;;;;;;6.48;83.81;97901.56;4909138;29;20678;-53
2022/02/18 04:06:02;;;;;;;6.20;2.45;;;;;;;6.54;84.64;97896.25;4906755;29;20052;-54
2022/02/18 04:08:29;;;;;;;2.60;1.48;;;;;;;6.58;84.99;97885.03;4905268;29;20100;-54
2022/02/18 04:10:56;;;;;;;2.92;0.28;;;;;;;6.66;84.26;97865.13;4910527;29;20472;-55
2022/02/18 04:13:22;;;;;;;4.88;0.40;;;;;;;6.64;84.49;97851.47;4905991;29;20769;-51
2022/02/18 04:15:49;;;;;;;0.73;0.30;;;;;;;6.69;84.31;97849.63;4905513;29;20044;-54
2022/02/18 04:18:16;;;;;;;0.82;0.30;;;;;;;6.71;83.69;97815.28;4905588;29;20115;-51
2022/02/18 04:20:42;;;;;;;1.95;1.42;;;;;;;6.74;84.66;97820.38;4909857;29;20055;-57
2022/02/18 04:23:28;;;;;;;0.50;0.40;;;;;;;6.79;84.31;97813.41;4908261;29;20543;-58
2022/02/18 04:25:54;;;;;;;2.30;2.10;;;;;;;6.81;84.59;97804.78;4904582;29;20155;-54
2022/02/18 04:28:21;;;;;;;2.78;0.22;;;;;;;6.85;85.18;97796.97;4908639;29;20079;-56
2022/02/18 04:30:48;;;;;;;0.50;0.30;;;;;;;6.92;85.15;97788.22;4909665;29;20080;-52
2022/02/18 04:33:15;;;;;;;0.70;0.30;;;;;;;6.96;84.57;97789.00;4905481;29;20055;-54
2022/02/18 04:35:43;;;;;;;2.03;0.47;;;;;;;7.00;84.60;97777.75;4902031;29;20673;-52
2022/02/18 04:38:10;;;;;;;2.58;0.35;;;;;;;7.01;84.25;97757.13;4906619;29;20112;-54
2022/02/18 04:40:36;;;;;;;5.40;1.45;;;;;;;7.07;84.16;97763.84;4906627;29;20095;-54
2022/02/18 04:43:03;;;;;;;2.15;0.45;;;;;;;7.11;83.68;97756.88;4904689;29;20107;-56
2022/02/18 04:45:30;;;;;;;2.95;0.40;;;;;;;7.16;84.54;97735.28;4909130;29;20048;-52
2022/02/18 04:47:56;;;;;;;2.03;1.92;;;;;;;7.28;84.08;97712.66;4904700;29;20048;-54
2022/02/18 04:50:23;;;;;;;3.30;0.55;;;;;;;7.31;84.39;97728.88;4906223;29;20096;-57
2022/02/18 04:52:50;;;;;;;1.55;0.45;;;;;;;7.37;85.54;97712.44;4906261;29;20112;-51
2022/02/18 04:55:16;;;;;;;1.20;0.40;;;;;;;7.41;84.05;97706.31;4904918;29;20078;-57
2022/02/18 04:57:46;;;;;;;1.08;0.55;;;;;;;7.49;83.72;97689.78;4906618;29;20075;-54
2022/02/18 05:00:13;;;;;;;1.58;0.52;;;;;;;7.53;84.46;97674.19;4905913;29;20060;-54
2022/02/18 05:02:40;;;;;;;0.98;0.30;;;;;;;7.65;85.31;97667.00;4908256;29;20062;-58
2022/02/18 05:05:07;;;;;;;2.00;0.45;;;;;;;7.64;84.57;97650.72;4908644;29;20112;-53
2022/02/18 05:07:33;;;;;;;2.50;1.35;;;;;;;7.72;85.17;97635.88;4907887;29;20102;-57
2022/02/18 05:10:03;;;;;;;1.20;0.57;;;;;;;7.78;84.39;97639.13;4909470;29;20044;-53
2022/02/18 05:12:29;;;;;;;2.70;0.60;;;;;;;7.82;84.66;97631.28;4907831;29;20048;-53
2022/02/18 05:14:56;;;;;;;2.50;1.38;;;;;;;7.89;85.33;97613.03;4907536;29;20107;-55
2022/02/18 05:17:23;;;;;;;0.90;0.40;;;;;;;7.94;85.14;97593.94;4904640;29;20052;-58
2022/02/18 05:19:49;;;;;;;1.30;0.45;;;;;;;7.97;84.79;97590.44;4907813;29;20045;-56
2022/02/18 05:22:16;;;;;;;1.60;0.30;;;;;;;8.02;85.69;97577.41;4906806;29;20052;-54
2022/02/18 05:24:42;;;;;;;1.65;0.45;;;;;;;8.05;84.32;97572.16;4905239;29;20111;-55
2022/02/18 05:27:09;;;;;;;1.10;0.52;;;;;;;8.13;85.52;97577.91;4908242;29;20104;-59
2022/02/18 05:29:36;;;;;;;0.73;0.50;;;;;;;8.20;84.73;97584.53;4904304;29;20056;-56
2022/02/18 05:32:03;;;;;;;0.80;0.40;;;;;;;8.32;85.65;97556.66;4909214;29;20052;-55
2022/02/18 05:34:29;;;;;;;1.23;0.93;;;;;;;8.36;85.42;97551.34;4904725;29;20117;-57
2022/02/18 05:36:56;;;;;;;1.80;0.40;;;;;;;8.41;85.09;97538.28;4906907;29;20059;-54
2022/02/18 05:39:23;;;;;;;0.93;0.40;;;;;;;8.49;85.15;97536.28;4906626;29;20536;-55
2022/02/18 05:41:50;;;;;;;0.82;0.40;;;;;;;8.59;85.66;97538.59;4903651;29;20076;-51
2022/02/18 05:44:18;;;;;;;0.85;0.20;;;;;;;8.65;85.38;97522.88;4908764;29;20075;-52
2022/02/18 05:46:45;;;;;;;1.55;0.20;;;;;;;8.71;85.26;97508.91;4905018;29;20044;-57
2022/02/18 05:49:11;;;;;;;2.05;0.65;;;;;;;8.77;85.05;97484.63;4907432;29;20120;-56
2022/02/18 05:51:38;;;;;;;0.55;0.20;;;;;;;8.85;85.52;97487.78;4905627;29;20056;-55
2022/02/18 05:54:05;;;;;;;1.27;0.60;;;;;;;8.90;84.84;97496.19;4908994;29;20115;-60
2022/02/18 05:56:32;;;;;;;1.00;0.30;;;;;;;8.98;85.57;97494.16;4906217;29;20056;-54
2022/02/18 05:58:58;;;;;;;1.25;0.40;;;;;;;9.05;84.73;97493.94;4903401;29;20060;-58
2022/02/18 06:01:25;;;;;;;2.58;0.80;;;;;;;9.13;85.53;97476.41;4905792;29;21713;-58
2022/02/18 06:03:51;;;;;;;1.73;0.65;;;;;;;9.19;85.55;97465.81;4904735;29;20563;-57
2022/02/18 06:06:18;;;;;;;2.08;0.80;;;;;;;9.21;85.62;97479.53;4909495;29;20107;-56
2022/02/18 06:08:44;;;;;;;3.58;1.25;;;;;;;9.25;85.26;97475.06;4899840;29;20556;-55
2022/02/18 06:11:11;;;;;;;4.15;1.73;;;;;;;9.31;84.77;97461.94;4900028;29;20493;-57
2022/02/18 06:13:38;;;;;;;1.50;0.60;;;;;;;9.34;84.85;97453.22;4907455;29;20060;-55
2022/02/18 06:16:05;;;;;;;1.40;0.70;;;;;;;9.39;84.54;97425.44;4909079;29;20197;-54
2022/02/18 06:18:31;;;;;;;3.03;0.40;;;;;;;9.42;83.96;97433.09;4908550;29;20532;-58
2022/02/18 06:20:58;;;;;;;2.83;0.73;;;;;;;9.45;84.21;97426.94;4907908;29;20052;-53
2022/02/18 06:23:24;;;;;;;1.77;0.90;;;;;;;9.50;84.08;97431.03;4907640;29;20048;-60
2022/02/18 06:25:51;;;;;;;1.33;0.30;;;;;;;9.50;84.03;97428.44;4908915;29;20131;-58
2022/02/18 06:28:18;;;;;;;2.92;1.40;;;;;;;9.52;83.65;97436.97;4910751;29;20096;-58
2022/02/18 06:30:44;;;;;;;3.65;0.73;;;;;;;9.56;83.59;97436.88;4908203;29;20500;-59
2022/02/18 06:33:11;;;;;;;11.77;3.75;;;;;;;9.55;83.20;97428.25;4906937;29;20111;-59
2022/02/18 06:35:39;;;;;;;5.90;2.08;;;;;;;9.52;84.00;97434.41;4910629;29;20068;-58
2022/02/18 06:38:07;;;;;;;9.82;1.75;;;;;;;9.52;82.89;97405.97;4905238;29;20868;-56
2022/02/18 06:40:35;;;;;;;9.07;2.10;;;;;;;9.49;83.22;97390.59;4909661;29;20051;-58
2022/02/18 06:43:02;;;;;;;5.70;1.02;;;;;;;9.49;82.83;97375.09;4908434;29;20496;-57
2022/02/18 06:45:28;;;;;;;3.08;0.55;;;;;;;9.46;83.16;97370.03;4904174;29;20121;-55
2022/02/18 06:47:55;;;;;;;3.90;0.82;;;;;;;9.47;83.48;97361.41;4907071;29;20107;-56
2022/02/18 06:50:22;;;;;;;2.63;0.77;;;;;;;9.47;82.42;97340.75;4907521;29;20602;-55
2022/02/18 06:52:48;;;;;;;3.05;0.30;;;;;;;9.44;83.16;97358.94;4911590;29;20542;-53
2022/02/18 06:55:16;;;;;;;2.60;0.43;;;;;;;9.45;82.86;97350.28;4906868;29;20520;-56
2022/02/18 06:57:46;;;;;;;3.42;0.30;;;;;;;9.45;82.49;97349.44;4907548;29;20060;-55
2022/02/18 07:00:15;;;;;;;3.05;0.43;;;;;;;9.43;82.27;97328.88;4906097;29;20059;-55
2022/02/18 07:02:42;;;;;;;3.53;0.32;;;;;;;9.45;81.82;97339.09;4908196;29;20060;-56
2022/02/18 07:05:11;;;;;;;1.73;0.35;;;;;;;9.41;81.00;97328.06;4907117;29;20076;-53
2022/02/18 07:07:39;;;;;;;3.50;0.30;;;;;;;9.38;80.83;97317.84;4902579;29;20404;-55
2022/02/18 07:10:07;;;;;;;5.43;1.38;;;;;;;9.38;79.68;97331.63;4907638;29;20056;-52
2022/02/18 07:12:34;;;;;;;7.80;0.55;;;;;;;9.36;79.79;97332.59;4906001;29;20044;-55
2022/02/18 07:15:00;;;;;;;2.10;0.65;;;;;;;9.32;79.99;97337.03;4906380;29;20060;-54
2022/02/18 07:17:29;;;;;;;7.43;0.88;;;;;;;9.27;78.74;97338.97;4909904;29;20056;-52
2022/02/18 07:19:56;;;;;;;3.33;1.30;;;;;;;9.22;77.99;97325.44;4904889;29;20091;-50
2022/02/18 07:22:24;;;;;;;5.78;1.15;;;;;;;9.14;77.83;97323.13;4904827;29;20060;-56
2022/02/18 07:24:52;;;;;;;12.35;2.42;;;;;;;9.10;78.14;97327.59;4905425;29;20048;-54
2022/02/18 07:27:19;;;;;;;11.40;1.58;;;;;;;9.07;77.51;97316.53;4905290;29;20047;-53
2022/02/18 07:29:46;;;;;;;4.35;0.63;;;;;;;9.00;77.17;97275.50;4903113;29;20448;-57
2022/02/18 07:32:13;;;;;;;14.95;2.53;;;;;;;8.98;77.29;97310.84;4907183;29;20452;-59
2022/02/18 07:34:40;;;;;;;4.60;0.90;;;;;;;8.95;77.11;97326.47;4907323;29;20064;-55
2022/02/18 07:37:06;;;;;;;5.60;0.80;;;;;;;8.91;77.93;97291.34;4904368;29;20548;-56
2022/02/18 07:39:33;;;;;;;6.63;0.93;;;;;;;8.90;77.02;97291.41;4907117;29;20496;-55
2022/02/18 07:42:00;;;;;;;13.88;2.47;;;;;;;8.87;76.91;97341.41;4911280;29;20130;-57
2022/02/18 07:44:27;;;;;;;15.57;3.08;;;;;;;8.84;76.24;97332.06;4906755;29;20052;-52
2022/02/18 07:46:53;;;;;;;6.68;1.20;;;;;;;8.77;75.44;97306.53;4905907;29;20083;-53
2022/02/18 07:49:42;;;;;;;13.85;1.50;;;;;;;8.70;74.18;97318.84;4910818;29;20135;-53
2022/02/18 07:52:09;;;;;;;9.02;1.58;;;;;;;8.61;74.59;97278.75;4909537;29;20055;-54
2022/02/18 07:54:35;;;;;;;11.88;1.80;;;;;;;8.58;74.20;97278.91;4911514;29;20499;-57
2022/02/18 07:57:04;;;;;;;10.52;1.42;;;;;;;8.54;73.67;97288.50;4908228;29;20056;-56
2022/02/18 07:59:30;;;;;;;17.45;2.00;;;;;;;8.46;72.88;97301.66;4905496;29;20197;-51
2022/02/18 08:01:57;;;;;;;19.10;2.25;;;;;;;8.40;73.16;97276.09;4903486;29;20111;-55
2022/02/18 08:04:23;;;;;;;10.18;1.73;;;;;;;8.33;72.78;97261.75;4910441;29;20048;-53
2022/02/18 08:06:50;;;;;;;19.15;2.05;;;;;;;8.26;73.08;97274.06;4908162;29;20052;-55
2022/02/18 08:09:16;;;;;;;12.27;1.13;;;;;;;8.20;72.13;97274.28;4902829;29;20063;-52
2022/02/18 08:11:43;;;;;;;8.35;0.90;;;;;;;8.15;72.53;97282.19;4907780;29;20131;-54
2022/02/18 08:14:10;;;;;;;13.23;1.77;;;;;;;8.12;72.20;97284.88;4909985;29;20064;-57
2022/02/18 08:16:36;;;;;;;12.05;1.63;;;;;;;8.03;71.01;97282.63;4907371;29;20108;-57
2022/02/18 08:19:03;;;;;;;5.78;1.20;;;;;;;7.98;71.49;97273.34;4904593;29;20099;-53
2022/02/18 08:21:30;;;;;;;10.30;2.40;;;;;;;7.96;70.01;97267.41;4906428;29;20740;-49
2022/02/18 08:23:56;;;;;;;9.73;2.60;;;;;;;7.83;68.31;97266.16;4905303;29;20445;-51
2022/02/18 08:26:24;;;;;;;12.68;3.00;;;;;;;7.80;67.63;97256.00;4906927;29;20048;-54
2022/02/18 08:28:51;;;;;;;8.43;1.85;;;;;;;7.71;68.12;97247.69;4904516;29;20048;-53
2022/02/18 08:31:18;;;;;;;11.45;2.47;;;;;;;7.67;68.16;97253.84;4903088;29;20056;-51
2022/02/18 08:33:45;;;;;;;12.88;1.20;;;;;;;7.61;68.54;97243.78;4904403;29;20052;-52
2022/02/18 08:36:12;;;;;;;6.60;1.67;;;;;;;7.59;69.66;97243.81;4910882;29;20056;-49
2022/02/18 08:38:40;;;;;;;14.25;1.83;;;;;;;7.53;68.18;97258.66;4905795;29;20085;-51
2022/02/18 08:41:09;;;;;;;8.80;1.33;;;;;;;7.51;68.13;97240.69;4902486;29;20052;-53
2022/02/18 08:43:36;;;;;;;8.88;1.80;;;;;;;7.49;67.88;97233.91;4906618;29;20052;-52
2022/02/18 08:46:02;;;;;;;8.85;1.05;;;;;;;7.46;68.83;97230.53;4902937;29;20059;-54
2022/02/18 08:48:29;;;;;;;13.95;1.60;;;;;;;7.49;67.96;97229.59;4904049;29;20492;-54
2022/02/18 08:50:57;;;;;;;9.38;1.15;;;;;;;7.70;69.13;97230.53;4908995;29;20085;-51
2022/02/18 08:53:24;;;;;;;12.85;3.03;;;;;;;7.76;68.34;97208.00;4909135;29;20060;-51
2022/02/18 08:55:51;;;;;;;9.57;1.30;;;;;;;7.76;67.09;97206.28;4907589;29;20052;-55
2022/02/18 08:58:18;;;;;;;16.20;1.65;;;;;;;8.31;68.59;97173.31;4907093;29;20060;-53
2022/02/18 09:00:45;;;;;;;11.45;1.92;;;;;;;9.09;66.25;97170.16;4905310;29;20115;-54
2022/02/18 09:03:12;;;;;;;10.63;1.98;;;;;;;9.98;63.74;97168.81;4905265;29;20040;-54
2022/02/18 09:05:38;;;;;;;21.52;2.03;;;;;;;10.69;60.49;97169.78;4909360;29;20087;-56
2022/02/18 09:08:05;;;;;;;8.63;0.80;;;;;;;11.44;61.07;97161.69;4903392;29;20060;-50
2022/02/18 09:10:31;;;;;;;11.15;1.23;;;;;;;12.23;60.02;97149.75;4904081;29;20104;-52
2022/02/18 09:12:58;;;;;;;7.90;1.15;;;;;;;12.79;56.62;97137.03;4909716;29;20052;-48
2022/02/18 09:15:25;;;;;;;6.20;1.27;;;;;;;13.36;56.40;97134.56;4910268;29;20107;-48
2022/02/18 09:17:54;;;;;;;9.23;1.52;;;;;;;13.99;57.54;97123.81;4910054;29;20104;-51
2022/02/18 09:20:21;;;;;;;10.25;1.13;;;;;;;14.44;53.66;97133.09;4908040;29;20059;-48
2022/02/18 09:22:48;;;;;;;12.70;1.08;;;;;;;14.56;51.39;97116.66;4908007;29;20054;-51
2022/02/18 09:25:14;;;;;;;11.60;1.60;;;;;;;14.81;51.75;97132.44;4904834;29;20120;-52
2022/02/18 09:27:42;;;;;;;5.88;1.17;;;;;;;14.94;49.38;97120.28;4908165;29;20055;-56
2022/02/18 09:30:10;;;;;;;9.75;1.30;;;;;;;15.26;50.48;97119.00;4908167;29;20112;-49
2022/02/18 09:32:38;;;;;;;13.82;1.45;;;;;;;15.44;49.96;97108.22;4908709;29;20062;-51
2022/02/18 09:35:09;;;;;;;9.02;1.73;;;;;;;15.55;51.12;97108.31;4910467;29;20607;-49
2022/02/18 09:37:38;;;;;;;12.65;1.20;;;;;;;14.86;46.90;97086.91;4905647;29;20147;-50
2022/02/18 09:40:07;;;;;;;12.00;2.28;;;;;;;14.30;48.91;97080.16;4909965;29;20052;-50
2022/02/18 09:42:39;;;;;;;7.70;0.75;;;;;;;13.72;49.64;97064.78;4908527;29;20079;-52
2022/02/18 09:45:05;;;;;;;7.78;1.50;;;;;;;13.14;49.64;97054.47;4908971;29;20052;-47
2022/02/18 09:47:33;;;;;;;12.73;1.33;;;;;;;12.78;52.64;97043.63;4904314;29;20650;-54
2022/02/18 09:50:02;;;;;;;10.90;1.65;;;;;;;12.33;52.77;97055.72;4911665;29;20492;-51
2022/02/18 09:52:28;;;;;;;14.32;1.40;;;;;;;11.87;51.45;97022.00;4912388;29;20515;-50
2022/02/18 09:54:55;;;;;;;9.32;0.93;;;;;;;11.44;52.66;97015.69;4913475;29;20084;-47
2022/02/18 09:57:25;;;;;;;9.27;1.00;;;;;;;11.15;52.67;97000.00;4910244;29;20052;-53
2022/02/18 09:59:53;;;;;;;12.15;1.75;;;;;;;10.92;53.06;96984.78;4908830;29;20099;-53
2022/02/18 10:02:20;;;;;;;11.75;1.13;;;;;;;10.68;53.89;96992.09;4907498;29;20045;-53
2022/02/18 10:04:52;;;;;;;11.32;1.40;;;;;;;10.45;54.22;96978.59;4912460;29;20060;-54
2022/02/18 10:07:18;;;;;;;11.93;1.45;;;;;;;10.26;54.74;96951.06;4907099;29;20060;-54
2022/02/18 10:09:47;;;;;;;13.65;1.50;;;;;;;10.12;55.37;96956.09;4914351;29;20052;-54
2022/02/18 10:12:14;;;;;;;14.18;1.40;;;;;;;9.86;54.01;96938.41;4910323;29;20080;-58
2022/02/18 10:15:00;;;;;;;5.15;0.90;;;;;;;9.69;53.91;96926.31;4910705;29;20056;-57
2022/02/18 10:17:45;;;;;;;5.68;0.60;;;;;;;9.68;54.79;96914.31;4906609;29;20051;-56
2022/02/18 10:20:16;;;;;;;10.95;1.25;;;;;;;9.72;55.34;96915.81;4904253;29;20087;-56
2022/02/18 10:22:56;;;;;;;8.98;0.90;;;;;;;9.58;55.38;96907.91;4904139;29;20140;-52
2022/02/18 10:25:26;;;;;;;15.32;1.23;;;;;;;9.52;55.05;96889.22;4910357;29;20047;-56
2022/02/18 10:27:56;;;;;;;9.20;1.52;;;;;;;9.43;55.37;96879.38;4907544;29;20075;-53
2022/02/18 10:30:26;;;;;;;10.40;1.50;;;;;;;9.28;55.39;96869.78;4909286;29;20116;-54
2022/02/18 10:32:56;;;;;;;9.10;1.25;;;;;;;9.22;55.08;96845.09;4909508;29;20111;-52
2022/02/18 10:35:31;;;;;;;10.43;1.42;;;;;;;9.04;54.84;96842.47;4911037;29;20850;-55
2022/02/18 10:37:57;;;;;;;9.05;1.27;;;;;;;8.96;56.26;96837.69;4907263;29;20059;-56
2022/02/18 10:40:25;;;;;;;9.93;1.30;;;;;;;8.93;56.25;96819.78;4909981;29;20044;-56
2022/02/18 10:42:53;;;;;;;12.85;1.48;;;;;;;8.89;56.26;96802.75;4906127;29;20044;-51
2022/02/18 10:45:23;;;;;;;8.75;1.05;;;;;;;8.77;56.39;96777.53;4914618;29;20120;-52
2022/02/18 10:48:07;;;;;;;12.77;2.45;;;;;;;8.70;55.13;96771.81;4910502;29;20441;-55
2022/02/18 10:50:34;;;;;;;9.20;1.35;;;;;;;8.74;56.27;96748.41;4910407;29;20087;-52
2022/02/18 10:53:14;;;;;;;8.77;1.02;;;;;;;8.77;55.79;96711.28;4910141;29;20064;-53
2022/02/18 10:55:51;;;;;;;12.68;0.80;;;;;;;8.70;55.05;96705.59;4907568;29;20060;-55
2022/02/18 10:58:22;;;;;;;10.68;1.33;;;;;;;8.71;56.19;96673.72;4910736;29;20584;-57
2022/02/18 11:01:09;;;;;;;10.27;0.98;;;;;;;8.74;56.05;96655.50;4905568;29;20527;-56
2022/02/18 11:03:41;;;;;;;13.93;1.20;;;;;;;8.94;56.53;96634.75;4910310;29;20052;-52
2022/02/18 11:06:11;;;;;;;10.43;1.27;;;;;;;9.18;54.93;96619.75;4909349;29;20563;-49
2022/02/18 11:08:39;;;;;;;14.30;1.15;;;;;;;9.28;54.33;96596.84;4909507;29;20055;-54
2022/02/18 11:11:10;;;;;;;9.52;1.27;;;;;;;9.22;54.10;96592.03;4910316;29;20054;-58
2022/02/18 11:13:40;;;;;;;9.75;0.85;;;;;;;9.19;55.64;96592.19;4907887;29;20044;-49
2022/02/18 11:16:10;;;;;;;14.68;1.23;;;;;;;9.11;55.67;96574.50;4915001;29;20504;-52
2022/02/18 11:18:38;;;;;;;6.80;1.10;;;;;;;8.99;54.85;96571.66;4905251;29;20044;-52
2022/02/18 11:21:07;;;;;;;5.35;1.00;;;;;;;8.82;55.52;96563.97;4908926;29;20056;-53
2022/02/18 11:23:35;;;;;;;8.82;0.82;;;;;;;8.78;56.41;96549.56;4906809;29;20056;-54
2022/02/18 11:26:02;;;;;;;9.52;1.20;;;;;;;8.79;57.46;96513.34;4909116;29;20055;-54
2022/02/18 11:28:29;;;;;;;6.93;0.90;;;;;;;8.76;57.24;96528.16;4907246;29;20122;-52
2022/02/18 11:31:00;;;;;;;9.35;0.80;;;;;;;8.74;58.42;96538.56;4909576;29;20060;-56
2022/02/18 11:33:45;;;;;;;6.05;1.25;;;;;;;8.71;58.98;96503.44;4907524;29;20111;-55
2022/02/18 11:36:40;;;;;;;4.50;0.73;;;;;;;8.59;59.92;96502.34;4908793;29;20047;-57
2022/02/18 11:39:46;;;;;;;7.35;1.38;;;;;;;8.45;60.90;96499.59;4911009;29;20104;-59
2022/02/18 11:42:39;;;;;;;7.80;0.60;;;;;;;8.32;60.47;96473.59;4897524;29;20100;-60